Time;durP1;ratioP1;P1;durP2;ratioP2;P2;SDS_P1;SDS_P2;PMS_P1;PMS_P2;Temp;Humidity;BMP_temperature;BMP_pressure;BME280_temperature;BME280_humidity;BME280_pressure;Samples;Min_cycle;Max_cycle;Signal;HPM_P1;HPM_P2
2023/10/14 00:01:26;;;;;;;13.70;5.80;;;;;;;19.20;100.00;99716.81;4918320;29;20032;-78
2023/10/14 00:03:51;;;;;;;16.45;5.38;;;;;;;18.99;100.00;99722.44;4914818;29;20063;-78
2023/10/14 00:06:39;;;;;;;15.60;5.53;;;;;;;18.68;100.00;99745.94;4908475;29;20188;-79
2023/10/14 00:09:14;;;;;;;12.55;2.80;;;;;;;17.57;100.00;99771.22;4914508;29;20035;-78
2023/10/14 00:11:56;;;;;;;7.95;1.60;;;;;;;16.55;100.00;99797.59;4915198;29;20055;-78
2023/10/14 00:14:37;;;;;;;3.63;1.38;;;;;;;16.05;100.00;99829.38;4916463;29;20032;-78
2023/10/14 00:17:21;;;;;;;10.05;1.13;;;;;;;15.82;100.00;99832.97;4900483;29;20598;-78
2023/10/14 00:19:49;;;;;;;4.50;1.00;;;;;;;15.75;100.00;99837.47;4901635;29;20047;-78
2023/10/14 00:22:18;;;;;;;3.25;0.68;;;;;;;15.57;100.00;99849.63;4899974;29;20103;-78
2023/10/14 00:24:43;;;;;;;1.88;0.60;;;;;;;15.42;100.00;99862.44;4925327;29;20525;-79
2023/10/14 00:27:09;;;;;;;4.07;0.80;;;;;;;15.31;100.00;99894.00;4897168;29;20044;-79
2023/10/14 00:29:35;;;;;;;2.50;0.50;;;;;;;15.38;100.00;99886.78;4912583;29;20036;-79
2023/10/14 00:32:03;;;;;;;3.38;0.80;;;;;;;15.50;100.00;99873.44;4909037;29;20034;-79
2023/10/14 00:34:30;;;;;;;1.85;0.50;;;;;;;15.49;100.00;99865.34;4918055;29;20058;-79
2023/10/14 00:36:58;;;;;;;1.65;0.60;;;;;;;15.35;100.00;99869.72;4901349;29;20039;-79
2023/10/14 00:39:28;;;;;;;5.47;1.15;;;;;;;15.39;100.00;99887.63;4916671;29;20044;-79
2023/10/14 00:41:55;;;;;;;3.05;0.90;;;;;;;15.44;100.00;99886.03;4912371;29;20102;-79
2023/10/14 00:44:26;;;;;;;2.15;1.00;;;;;;;15.52;100.00;99884.31;4916451;29;20047;-79
2023/10/14 00:46:54;;;;;;;4.28;1.02;;;;;;;15.40;100.00;99870.91;4915265;29;20040;-79
2023/10/14 00:49:42;;;;;;;5.55;0.90;;;;;;;15.40;100.00;99886.59;4893807;29;20051;-79
2023/10/14 00:52:07;;;;;;;1.48;0.70;;;;;;;15.33;100.00;99885.56;4908397;29;20041;-79
2023/10/14 00:57:20;;;;;;;3.67;0.80;;;;;;;15.53;100.00;99913.63;4911262;29;20050;-79
2023/10/14 00:59:49;;;;;;;3.10;0.70;;;;;;;15.44;100.00;99921.06;4902030;29;20040;-80
2023/10/14 01:02:16;;;;;;;1.52;0.90;;;;;;;15.33;100.00;99926.94;4913127;29;20064;-79
2023/10/14 01:04:48;;;;;;;1.60;0.65;;;;;;;15.09;100.00;99919.59;4913384;29;20039;-79
2023/10/14 01:07:14;;;;;;;2.33;0.70;;;;;;;15.29;100.00;99922.81;4912345;29;20043;-79
2023/10/14 01:12:17;;;;;;;4.22;1.00;;;;;;;15.30;100.00;99932.81;4917325;29;20491;-79
2023/10/14 01:15:05;;;;;;;4.30;1.08;;;;;;;15.28;100.00;99937.63;4915828;29;20035;-79
2023/10/14 01:17:32;;;;;;;4.00;1.00;;;;;;;15.29;100.00;99939.38;4922586;29;20147;-79
2023/10/14 01:20:01;;;;;;;3.05;1.08;;;;;;;15.38;100.00;99938.31;4928742;29;20044;-79
2023/10/14 01:22:29;;;;;;;5.43;1.20;;;;;;;15.31;100.00;99951.09;4922200;29;20079;-79
2023/10/14 01:24:57;;;;;;;5.32;1.50;;;;;;;15.18;100.00;99952.50;4917082;29;20131;-79
2023/10/14 01:27:24;;;;;;;4.90;1.10;;;;;;;15.13;100.00;99960.41;4900835;29;20498;-79
2023/10/14 01:29:53;;;;;;;4.00;1.38;;;;;;;15.04;100.00;99973.34;4917666;29;20063;-79
2023/10/14 01:37:58;;;;;;;5.00;1.83;;;;;;;15.22;100.00;99991.59;4916783;29;20096;-79
2023/10/14 01:40:40;;;;;;;4.72;1.83;;;;;;;15.14;100.00;100006.25;4917948;29;20077;-79
2023/10/14 01:43:06;;;;;;;3.63;1.95;;;;;;;15.23;100.00;100015.38;4909985;29;20064;-79
2023/10/14 01:48:14;;;;;;;1.13;0.90;;;;;;;14.73;100.00;100044.81;4925120;29;20086;-79
2023/10/14 01:50:47;;;;;;;5.85;1.17;;;;;;;14.32;100.00;100050.16;4917392;29;20033;-78
2023/10/14 01:53:23;;;;;;;;;;;;;;;14.35;100.00;100033.28;4914662;29;20032;-78
2023/10/14 01:55:52;;;;;;;10.13;1.35;;;;;;;14.31;100.00;100045.66;4913677;29;19934;-78
2023/10/14 01:58:30;;;;;;;8.15;1.38;;;;;;;14.40;100.00;100052.94;4915029;29;20028;-78
2023/10/14 02:03:49;;;;;;;11.70;1.40;;;;;;;14.44;100.00;100081.84;4915515;29;20340;-79
2023/10/14 02:06:20;;;;;;;9.23;1.92;;;;;;;14.22;100.00;100085.22;4916074;29;20036;-79
2023/10/14 02:08:47;;;;;;;9.00;1.25;;;;;;;14.32;100.00;100095.06;4903591;29;20036;-79
2023/10/14 02:11:16;;;;;;;7.75;1.10;;;;;;;14.33;100.00;100095.91;4913473;29;20095;-78
2023/10/14 02:13:42;;;;;;;4.53;1.02;;;;;;;14.38;100.00;100099.06;4921011;29;20036;-79
2023/10/14 02:16:08;;;;;;;11.65;1.40;;;;;;;14.34;100.00;100114.19;4915205;29;20505;-79
2023/10/14 02:18:37;;;;;;;8.32;1.30;;;;;;;14.20;100.00;100123.03;4912040;29;20041;-79
2023/10/14 02:21:05;;;;;;;12.23;1.25;;;;;;;14.16;100.00;100145.38;4917319;29;20036;-79
2023/10/14 02:23:44;;;;;;;15.60;1.80;;;;;;;13.90;100.00;100150.88;4919447;29;20542;-79
2023/10/14 02:26:30;;;;;;;16.83;1.70;;;;;;;13.68;100.00;100152.28;4905982;29;20063;-77
2023/10/14 02:28:57;;;;;;;21.23;2.72;;;;;;;13.63;100.00;100165.66;4913372;29;20457;-77
2023/10/14 02:31:30;;;;;;;18.00;2.15;;;;;;;13.56;100.00;100176.44;4912934;29;20036;-79
2023/10/14 02:34:05;;;;;;;18.73;1.52;;;;;;;13.69;100.00;100181.53;4929627;29;20057;-77
2023/10/14 02:36:35;;;;;;;14.63;1.67;;;;;;;13.66;100.00;100184.59;4929736;29;20490;-78
2023/10/14 02:39:50;;;;;;;29.05;1.75;;;;;;;13.58;100.00;100188.13;4918628;29;20586;-77
2023/10/14 02:44:33;;;;;;;32.35;2.22;;;;;;;13.84;100.00;100205.72;4933853;29;20048;-78
2023/10/14 02:47:05;;;;;;;21.88;1.75;;;;;;;13.75;100.00;100207.53;4930523;29;20054;-78
2023/10/14 02:49:35;;;;;;;13.65;1.70;;;;;;;13.69;100.00;100219.16;4906722;29;20036;-76
2023/10/14 02:52:11;;;;;;;23.48;1.70;;;;;;;13.63;100.00;100219.81;4923819;29;20063;-77
2023/10/14 02:54:44;;;;;;;23.02;3.00;;;;;;;13.79;100.00;100222.72;4904883;29;20028;-77
2023/10/14 02:59:44;;;;;;;22.10;1.50;;;;;;;13.58;100.00;100240.38;4946310;28;19918;-77
2023/10/14 03:02:15;;;;;;;21.52;1.80;;;;;;;13.68;100.00;100244.97;4916712;29;20463;-77
2023/10/14 03:07:27;;;;;;;19.00;1.73;;;;;;;13.57;100.00;100262.56;4937852;29;20034;-77
2023/10/14 03:09:52;;;;;;;;;;;;;;;13.55;100.00;100279.19;4933583;29;20116;-77
2023/10/14 03:12:22;;;;;;;16.80;2.22;;;;;;;13.49;100.00;100287.22;4931041;29;19918;-77
2023/10/14 03:14:54;;;;;;;18.02;1.83;;;;;;;13.24;100.00;100295.13;4933992;29;20506;-77
2023/10/14 03:17:25;;;;;;;23.48;2.00;;;;;;;13.24;100.00;100295.13;4901905;29;20039;-77
2023/10/14 03:19:53;;;;;;;15.63;1.60;;;;;;;13.27;100.00;100296.72;4916554;29;20378;-77
2023/10/14 03:22:22;;;;;;;21.00;1.70;;;;;;;13.31;100.00;100311.88;4912542;29;20386;-77
2023/10/14 03:24:50;;;;;;;21.75;1.77;;;;;;;13.22;100.00;100314.53;4916629;29;20490;-77
2023/10/14 03:27:18;;;;;;;24.52;2.47;;;;;;;13.35;100.00;100329.84;4926645;29;20074;-77
2023/10/14 03:29:45;;;;;;;28.02;2.92;;;;;;;13.24;100.00;100334.47;4923421;29;20048;-77
2023/10/14 03:32:11;;;;;;;17.85;3.67;;;;;;;13.19;100.00;100339.56;4905411;29;20035;-77
2023/10/14 03:34:41;;;;;;;19.40;2.38;;;;;;;13.13;100.00;100342.06;4917922;29;20066;-77
2023/10/14 03:37:21;;;;;;;16.83;1.80;;;;;;;13.04;100.00;100350.19;4940260;29;20114;-76
2023/10/14 03:40:19;;;;;;;23.27;2.70;;;;;;;13.09;100.00;100354.41;4905069;29;20371;-77
2023/10/14 03:42:33;;;;;;;19.38;1.65;;;;;;;13.02;100.00;100371.47;4906081;29;20071;-77
2023/10/14 03:44:59;;;;;;;17.85;1.70;;;;;;;13.02;100.00;100384.38;4912651;29;20102;-77
2023/10/14 03:47:34;;;;;;;26.23;1.95;;;;;;;12.76;100.00;100378.63;4921266;29;20042;-77
2023/10/14 03:50:00;;;;;;;27.27;2.53;;;;;;;12.91;100.00;100388.13;4912951;29;20043;-77
2023/10/14 03:52:26;;;;;;;24.13;1.77;;;;;;;12.64;100.00;100391.66;4916642;29;20478;-77
2023/10/14 03:54:53;;;;;;;20.75;2.00;;;;;;;12.63;100.00;100390.78;4914440;29;20103;-77
2023/10/14 03:57:33;;;;;;;15.43;1.73;;;;;;;12.60;100.00;100399.31;4931174;29;20051;-77
2023/10/14 04:00:08;;;;;;;26.77;3.30;;;;;;;12.61;100.00;100397.44;4917996;29;20039;-77
2023/10/14 04:02:35;;;;;;;15.40;1.80;;;;;;;12.47;100.00;100413.34;4922796;29;20042;-77
2023/10/14 04:05:08;;;;;;;10.50;1.45;;;;;;;12.46;100.00;100414.38;4903347;29;20123;-76
2023/10/14 04:07:34;;;;;;;14.85;1.65;;;;;;;12.52;100.00;100420.28;4933896;29;20046;-90
2023/10/14 04:10:05;;;;;;;15.05;1.65;;;;;;;12.48;100.00;100428.81;4904740;29;20467;-89
2023/10/14 04:12:38;;;;;;;16.90;1.23;;;;;;;12.47;100.00;100432.56;4920806;29;20127;-89
2023/10/14 04:17:45;;;;;;;18.48;2.08;;;;;;;12.34;100.00;100434.72;4937059;29;20039;-88
2023/10/14 04:30:32;;;;;;;21.23;1.70;;;;;;;12.08;100.00;100475.56;4940584;29;20099;-90
2023/10/14 04:33:17;;;;;;;22.35;2.25;;;;;;;12.27;100.00;100472.88;4924105;29;20059;-91
2023/10/14 04:38:38;;;;;;;26.15;3.47;;;;;;;12.09;100.00;100491.91;4898788;29;20047;-90
2023/10/14 04:41:12;;;;;;;22.52;2.15;;;;;;;12.03;100.00;100497.09;4891453;29;20048;-89
2023/10/14 04:44:00;;;;;;;16.38;2.35;;;;;;;12.09;100.00;100497.38;4907465;29;20043;-89
2023/10/14 04:49:14;;;;;;;18.77;1.65;;;;;;;12.05;100.00;100509.66;4927583;29;20043;-89
2023/10/14 04:51:46;;;;;;;15.15;1.90;;;;;;;12.00;100.00;100522.91;4903628;29;20040;-90
2023/10/14 04:54:15;;;;;;;20.17;2.72;;;;;;;12.03;100.00;100530.00;4921211;29;20065;-89
2023/10/14 04:56:45;;;;;;;16.75;1.50;;;;;;;11.93;100.00;100528.09;4908378;29;20048;-90
2023/10/14 04:59:12;;;;;;;13.45;1.73;;;;;;;11.87;100.00;100545.09;4893189;29;20032;-91
2023/10/14 05:01:41;;;;;;;20.65;2.42;;;;;;;11.75;100.00;100554.41;4904360;29;20483;-90
2023/10/14 05:04:08;;;;;;;19.05;1.60;;;;;;;11.80;100.00;100554.84;4908321;29;20042;-90
2023/10/14 05:06:45;;;;;;;23.80;1.98;;;;;;;11.71;100.00;100555.69;4907311;29;20082;-91
2023/10/14 05:09:29;;;;;;;25.60;2.38;;;;;;;11.74;100.00;100566.38;4920397;29;20055;-91
2023/10/14 05:11:54;;;;;;;28.77;2.47;;;;;;;11.61;100.00;100573.94;4937130;29;20070;-91
2023/10/14 05:14:33;;;;;;;30.27;2.15;;;;;;;11.67;100.00;100574.28;4937896;29;20489;-91
2023/10/14 05:17:05;;;;;;;22.40;4.68;;;;;;;11.70;100.00;100578.63;4924103;29;20118;-91
2023/10/14 05:19:41;;;;;;;25.75;2.55;;;;;;;11.71;100.00;100583.13;4926111;29;20153;-79
2023/10/14 05:22:11;;;;;;;20.80;1.95;;;;;;;11.62;100.00;100586.66;4934035;29;20051;-78
2023/10/14 05:24:39;;;;;;;16.08;1.70;;;;;;;11.72;100.00;100593.06;4921758;29;20031;-77
2023/10/14 05:27:05;;;;;;;30.25;2.78;;;;;;;11.69;100.00;100596.09;4922108;29;20044;-78
2023/10/14 05:29:32;;;;;;;17.25;2.08;;;;;;;11.55;100.00;100606.41;4936178;29;20047;-78
2023/10/14 05:32:10;;;;;;;18.83;2.63;;;;;;;11.62;100.00;100609.47;4939574;29;20077;-78
2023/10/14 05:34:59;;;;;;;17.00;2.17;;;;;;;11.54;100.00;100612.91;4919497;29;20048;-77
2023/10/14 05:37:31;;;;;;;25.05;2.30;;;;;;;11.48;100.00;100613.44;4920092;29;20034;-79
2023/10/14 05:39:58;;;;;;;21.70;2.03;;;;;;;11.49;100.00;100622.50;4911369;29;20052;-77
2023/10/14 05:42:24;;;;;;;27.20;2.60;;;;;;;11.55;100.00;100624.72;4912608;29;20050;-78
2023/10/14 05:45:01;;;;;;;19.10;1.90;;;;;;;11.65;100.00;100630.28;4898563;29;20127;-77
2023/10/14 05:47:27;;;;;;;26.08;2.40;;;;;;;11.51;100.00;100631.47;4911236;29;20043;-78
2023/10/14 05:49:53;;;;;;;19.92;2.30;;;;;;;11.54;100.00;100645.81;4914711;29;20040;-78
2023/10/14 05:52:23;;;;;;;22.20;2.33;;;;;;;11.55;100.00;100650.25;4912652;29;20119;-78
2023/10/14 05:54:50;;;;;;;12.38;1.70;;;;;;;11.43;100.00;100647.72;4915190;29;20036;-78
2023/10/14 05:57:17;;;;;;;18.65;2.88;;;;;;;11.34;100.00;100646.66;4913947;29;20028;-78
2023/10/14 05:59:43;;;;;;;18.48;2.70;;;;;;;11.38;100.00;100646.25;4912754;29;20076;-78
2023/10/14 06:02:12;;;;;;;16.85;2.30;;;;;;;11.39;100.00;100653.44;4926468;29;20130;-78
2023/10/14 06:04:41;;;;;;;18.60;2.53;;;;;;;11.29;100.00;100668.09;4911340;29;20070;-78
2023/10/14 06:07:14;;;;;;;20.23;2.50;;;;;;;11.29;100.00;100665.34;4897621;29;20044;-77
2023/10/14 06:09:45;;;;;;;25.35;2.13;;;;;;;11.42;100.00;100681.63;4912709;29;20054;-78
2023/10/14 06:12:14;;;;;;;28.73;2.38;;;;;;;11.38;100.00;100687.38;4912683;29;20044;-77
2023/10/14 06:14:45;;;;;;;32.58;3.08;;;;;;;11.31;100.00;100688.00;4894896;29;20035;-77
2023/10/14 06:17:12;;;;;;;16.15;1.60;;;;;;;11.28;100.00;100693.75;4912514;29;20042;-77
2023/10/14 06:19:38;;;;;;;21.48;1.67;;;;;;;11.22;100.00;100701.50;4928184;29;20034;-78
2023/10/14 06:22:08;;;;;;;14.02;2.08;;;;;;;11.30;100.00;100703.59;4896252;29;21595;-79
2023/10/14 06:24:34;;;;;;;15.40;1.60;;;;;;;11.34;100.00;100712.44;4913945;29;20039;-78
2023/10/14 06:27:09;;;;;;;14.93;2.15;;;;;;;11.28;100.00;100715.69;4914011;29;20055;-79
2023/10/14 06:29:37;;;;;;;16.77;2.30;;;;;;;11.22;100.00;100719.81;4948345;29;20067;-94
2023/10/14 06:32:05;;;;;;;17.77;1.92;;;;;;;11.38;100.00;100724.88;4931575;29;20068;-92
2023/10/14 06:34:35;;;;;;;25.55;3.65;;;;;;;11.21;100.00;100729.03;4921346;29;20846;-88
2023/10/14 06:37:02;;;;;;;20.48;1.98;;;;;;;11.20;100.00;100739.13;4919820;29;20032;-88
2023/10/14 06:39:28;;;;;;;19.67;2.00;;;;;;;11.29;100.00;100739.34;4924846;29;20036;-88
2023/10/14 06:41:55;;;;;;;20.40;2.65;;;;;;;11.21;100.00;100746.38;4917248;29;20613;-89
2023/10/14 06:44:27;;;;;;;18.23;2.95;;;;;;;11.24;100.00;100747.09;4900043;29;20033;-90
2023/10/14 06:46:56;;;;;;;19.83;2.60;;;;;;;11.24;100.00;100758.06;4926271;29;20040;-86
2023/10/14 06:49:32;;;;;;;24.52;2.53;;;;;;;11.09;100.00;100761.06;4913614;29;20027;-87
2023/10/14 06:51:59;;;;;;;14.25;1.80;;;;;;;11.20;100.00;100772.03;4910625;29;20067;-84
2023/10/14 06:54:25;;;;;;;16.05;1.80;;;;;;;11.21;100.00;100775.63;4911660;29;20028;-86
2023/10/14 06:56:53;;;;;;;23.15;3.78;;;;;;;11.22;100.00;100786.47;4914397;29;20032;-85
2023/10/14 06:59:22;;;;;;;16.88;1.70;;;;;;;11.42;100.00;100794.03;4913749;29;20111;-85
2023/10/14 07:01:48;;;;;;;21.77;2.15;;;;;;;11.67;100.00;100799.16;4912972;29;20513;-85
2023/10/14 07:04:16;;;;;;;18.40;2.05;;;;;;;11.66;100.00;100800.19;4913876;29;20032;-85
2023/10/14 07:06:47;;;;;;;11.23;1.98;;;;;;;11.75;100.00;100804.88;4922395;29;20035;-87
2023/10/14 07:09:17;;;;;;;15.57;2.83;;;;;;;11.57;100.00;100807.31;4909877;29;20036;-86
2023/10/14 07:11:56;;;;;;;18.00;2.17;;;;;;;11.65;100.00;100811.28;4898011;29;20113;-84
2023/10/14 07:14:23;;;;;;;18.52;2.17;;;;;;;11.70;100.00;100807.13;4911308;29;20024;-85
2023/10/14 07:16:50;;;;;;;11.27;1.98;;;;;;;11.59;100.00;100815.41;4913200;29;20042;-87
2023/10/14 07:19:17;;;;;;;14.88;2.10;;;;;;;11.91;100.00;100820.94;4913702;29;20047;-89
2023/10/14 07:21:44;;;;;;;23.17;4.13;;;;;;;11.97;100.00;100824.16;4899123;29;20131;-92
2023/10/14 07:24:14;;;;;;;16.83;2.50;;;;;;;11.97;100.00;100832.38;4918817;29;20498;-95
2023/10/14 07:26:41;;;;;;;20.23;2.25;;;;;;;12.10;100.00;100825.72;4916614;29;20032;-96
2023/10/14 07:29:06;;;;;;;22.35;2.00;;;;;;;11.82;100.00;100824.41;4919792;29;20048;-95
2023/10/14 07:31:32;;;;;;;15.52;2.75;;;;;;;11.54;100.00;100829.53;4917412;29;20119;-95
2023/10/14 07:34:03;;;;;;;20.38;3.03;;;;;;;11.64;100.00;100839.69;4929365;29;20491;-96
2023/10/14 07:36:30;;;;;;;20.65;1.70;;;;;;;11.70;100.00;100847.41;4929143;29;20153;-95
2023/10/14 07:39:29;;;;;;;21.77;2.22;;;;;;;11.91;100.00;100842.88;4918022;29;20505;-95
2023/10/14 07:41:52;;;;;;;17.70;1.92;;;;;;;12.33;100.00;100855.81;4926472;29;20036;-96
2023/10/14 07:44:22;;;;;;;22.35;2.38;;;;;;;12.52;100.00;100857.81;4935902;28;20111;-95
2023/10/14 07:46:51;;;;;;;22.75;2.28;;;;;;;12.59;100.00;100861.78;4937818;28;20056;-96
2023/10/14 07:49:19;;;;;;;22.50;2.97;;;;;;;12.65;100.00;100866.72;4947847;28;20052;-96
2023/10/14 07:51:46;;;;;;;25.92;2.22;;;;;;;12.76;100.00;100864.91;4936306;29;20208;-96
2023/10/14 07:54:13;;;;;;;18.63;3.08;;;;;;;12.91;100.00;100868.19;4906293;29;20040;-96
2023/10/14 07:56:42;;;;;;;14.70;2.47;;;;;;;12.96;100.00;100874.13;4924430;29;20024;-96
2023/10/14 07:59:08;;;;;;;17.02;1.80;;;;;;;13.11;100.00;100874.63;4918648;29;20028;-94
2023/10/14 08:01:38;;;;;;;12.35;1.65;;;;;;;13.07;100.00;100876.78;4925868;29;20024;-96
2023/10/14 08:04:13;;;;;;;20.65;2.03;;;;;;;13.34;100.00;100892.69;4940479;29;20047;-96
2023/10/14 08:22:14;;;;;;;24.45;2.10;;;;;;;14.00;100.00;100904.19;5597475;23;20098;-96
2023/10/14 08:24:39;;;;;;;19.95;2.28;;;;;;;14.13;100.00;100910.28;4947116;29;20035;-96
2023/10/14 08:27:05;;;;;;;13.52;2.70;;;;;;;14.18;100.00;100918.13;4942470;29;20055;-96
2023/10/14 08:29:32;;;;;;;15.77;1.65;;;;;;;13.99;100.00;100908.81;4955882;29;20036;-96
2023/10/14 08:31:58;;;;;;;19.88;2.55;;;;;;;14.31;100.00;100915.94;4915580;29;20032;-94
2023/10/14 08:34:25;;;;;;;20.08;1.85;;;;;;;14.40;100.00;100922.50;4914984;29;20492;-96
2023/10/14 08:36:56;;;;;;;20.58;1.98;;;;;;;14.30;100.00;100925.25;4942506;29;20435;-96
2023/10/14 08:39:23;;;;;;;21.40;1.75;;;;;;;14.84;100.00;100932.06;4933101;29;20028;-96
2023/10/14 08:41:51;;;;;;;21.65;2.00;;;;;;;14.74;100.00;100935.81;4943278;29;20032;-96
2023/10/14 08:44:25;;;;;;;13.18;1.92;;;;;;;14.99;100.00;100940.72;4929805;29;20045;-96
2023/10/14 08:46:51;;;;;;;23.60;2.13;;;;;;;14.94;100.00;100945.81;4942779;29;20048;-96
2023/10/14 08:49:25;;;;;;;13.57;1.80;;;;;;;15.12;100.00;100945.94;4939249;29;20797;-80
2023/10/14 08:51:52;;;;;;;;;;;;;;;15.32;100.00;100960.53;4907946;29;20037;-80
2023/10/14 08:54:23;;;;;;;12.13;1.52;;;;;;;15.16;100.00;100963.06;4919017;29;19918;-80
2023/10/14 08:56:49;;;;;;;19.90;2.33;;;;;;;15.30;100.00;100958.94;4918092;29;20051;-80
2023/10/14 08:59:15;;;;;;;29.80;2.33;;;;;;;15.68;100.00;100962.59;4902874;29;20040;-81
2023/10/14 09:01:42;;;;;;;15.00;2.13;;;;;;;15.64;100.00;100973.03;4901630;29;20072;-80
2023/10/14 09:04:11;;;;;;;14.45;1.85;;;;;;;15.56;100.00;100972.94;4918567;29;20431;-80
2023/10/14 09:06:37;;;;;;;17.33;2.00;;;;;;;16.28;100.00;100976.81;4919380;29;20501;-80
2023/10/14 09:09:12;;;;;;;21.13;2.00;;;;;;;15.92;100.00;100979.50;4887733;29;20023;-80
2023/10/14 09:11:37;;;;;;;20.80;2.28;;;;;;;15.83;100.00;100983.16;4902329;29;20765;-80
2023/10/14 09:14:06;;;;;;;9.98;1.40;;;;;;;15.93;100.00;100978.47;4903006;29;20039;-80
2023/10/14 09:16:34;;;;;;;11.23;1.60;;;;;;;16.03;100.00;100983.94;4917977;29;20042;-80
2023/10/14 09:19:02;;;;;;;17.13;1.83;;;;;;;15.85;100.00;100983.03;4919888;29;20505;-80
2023/10/14 09:21:28;;;;;;;12.32;1.60;;;;;;;15.92;100.00;100978.59;4920035;29;20039;-80
2023/10/14 09:23:53;;;;;;;11.57;1.92;;;;;;;15.95;100.00;100976.44;4904009;29;20048;-80
2023/10/14 09:26:21;;;;;;;17.50;2.38;;;;;;;16.23;100.00;100978.28;4900889;29;20099;-80
2023/10/14 09:28:48;;;;;;;13.63;1.95;;;;;;;15.55;100.00;100977.59;4918299;29;20606;-80
2023/10/14 09:31:14;;;;;;;17.35;2.47;;;;;;;15.94;100.00;100982.13;4902511;29;20028;-80
2023/10/14 09:33:41;;;;;;;16.33;2.05;;;;;;;16.19;100.00;100987.94;4911167;29;20441;-80
2023/10/14 09:36:20;;;;;;;14.45;2.17;;;;;;;16.27;100.00;100986.13;4924252;29;20035;-80
2023/10/14 09:38:50;;;;;;;21.38;2.03;;;;;;;16.51;100.00;100993.81;4904076;29;20046;-80
2023/10/14 09:41:17;;;;;;;16.00;2.35;;;;;;;16.11;100.00;100995.06;4935836;29;20036;-80
2023/10/14 09:43:43;;;;;;;11.43;1.50;;;;;;;16.58;100.00;100996.81;4917148;29;20506;-81
2023/10/14 09:46:16;;;;;;;20.42;1.75;;;;;;;16.36;100.00;100995.34;4918321;29;20046;-80
2023/10/14 09:48:43;;;;;;;22.13;2.10;;;;;;;15.99;100.00;100991.66;4919447;29;20085;-80
2023/10/14 09:51:12;;;;;;;17.20;1.90;;;;;;;16.22;100.00;100999.53;4910692;29;20122;-80
2023/10/14 09:53:38;;;;;;;11.48;1.75;;;;;;;16.55;100.00;100997.13;4934812;29;20043;-80
2023/10/14 09:56:07;;;;;;;13.07;1.40;;;;;;;15.96;100.00;101005.78;4934991;29;20086;-80
2023/10/14 09:58:43;;;;;;;13.82;1.85;;;;;;;16.18;100.00;101014.66;4939946;29;20027;-91
2023/10/14 10:01:18;;;;;;;23.75;1.80;;;;;;;16.41;100.00;101011.47;4941175;29;20518;-96
2023/10/14 10:04:12;;;;;;;9.68;1.17;;;;;;;16.17;100.00;101024.84;4928767;29;20059;-96
2023/10/14 10:06:56;;;;;;;18.60;2.05;;;;;;;15.72;100.00;101010.94;4930494;29;20031;-96
2023/10/14 10:09:47;;;;;;;14.50;1.60;;;;;;;16.33;100.00;101013.13;4931184;29;20027;-96
2023/10/14 10:12:20;;;;;;;17.65;2.00;;;;;;;16.45;100.00;101005.47;4908209;29;20060;-96
2023/10/14 10:15:09;;;;;;;9.57;1.10;;;;;;;16.85;100.00;101014.38;4924881;29;20083;-96
2023/10/14 10:17:39;;;;;;;15.30;1.63;;;;;;;16.48;98.78;101024.53;4912496;29;20040;-96
2023/10/14 10:20:13;;;;;;;19.58;2.13;;;;;;;16.40;100.00;101024.44;4897624;29;20039;-96
2023/10/14 10:22:52;;;;;;;10.93;1.38;;;;;;;16.43;100.00;101035.19;4916597;29;20044;-93
2023/10/14 10:25:47;;;;;;;14.63;1.90;;;;;;;16.95;100.00;101031.75;4937899;28;20067;-96
2023/10/14 10:28:39;;;;;;;15.73;2.05;;;;;;;16.46;99.34;101028.47;4936406;28;20040;-96
2023/10/14 10:31:17;;;;;;;16.80;1.60;;;;;;;16.70;98.99;101033.38;4934800;28;20050;-95
2023/10/14 10:33:54;;;;;;;16.58;1.52;;;;;;;16.09;100.00;101037.72;4953193;28;20088;-96
2023/10/14 10:36:34;;;;;;;18.02;1.92;;;;;;;16.03;97.84;101047.47;4938480;28;20064;-96
2023/10/14 10:46:54;;;;;;;12.50;1.92;;;;;;;15.41;100.00;101047.94;5678027;23;20050;-94
2023/10/14 10:49:56;;;;;;;14.73;1.70;;;;;;;15.28;100.00;101046.50;4948242;29;20509;-91
2023/10/14 10:52:29;;;;;;;16.38;0.93;;;;;;;15.73;96.31;101043.91;4952838;29;20050;-96
2023/10/14 10:57:32;;;;;;;11.65;1.10;;;;;;;15.75;92.41;101044.63;5457411;23;20056;-95
2023/10/14 10:59:58;;;;;;;14.18;1.27;;;;;;;15.78;95.64;101041.59;4912538;29;20051;-95
2023/10/14 11:02:25;;;;;;;13.80;1.95;;;;;;;15.38;93.62;101047.34;4911063;29;20031;-96
2023/10/14 11:04:57;;;;;;;16.80;1.55;;;;;;;15.97;92.29;101051.72;4913985;29;20032;-95
2023/10/14 11:07:25;;;;;;;5.85;0.93;;;;;;;15.58;90.89;101054.56;4928665;29;20121;-95
2023/10/14 11:09:53;;;;;;;13.85;1.27;;;;;;;15.63;93.14;101056.88;4934644;29;20023;-79
2023/10/14 11:12:18;;;;;;;10.18;1.35;;;;;;;15.86;90.40;101051.91;4932856;29;20524;-80
2023/10/14 11:14:44;;;;;;;9.32;1.23;;;;;;;16.07;86.27;101062.72;4933396;29;20039;-80
2023/10/14 11:17:09;;;;;;;10.88;2.28;;;;;;;16.05;87.73;101059.22;4932393;29;20020;-80
2023/10/14 11:19:35;;;;;;;10.43;1.38;;;;;;;15.97;84.91;101048.94;4934264;29;20111;-80
2023/10/14 11:22:06;;;;;;;10.25;1.50;;;;;;;15.74;85.86;101064.09;4932789;29;20042;-80
2023/10/14 11:24:32;;;;;;;12.02;1.48;;;;;;;15.61;89.98;101076.34;4917159;29;20028;-80
2023/10/14 11:26:59;;;;;;;12.95;1.75;;;;;;;15.14;89.90;101079.03;4934423;29;20031;-79
2023/10/14 11:29:25;;;;;;;8.45;1.23;;;;;;;15.00;92.45;101074.84;4932629;29;20028;-80
2023/10/14 11:31:59;;;;;;;14.68;1.98;;;;;;;15.00;94.43;101065.69;4933147;29;20030;-80
2023/10/14 11:34:24;;;;;;;16.90;1.33;;;;;;;15.43;90.79;101076.25;4929535;29;20035;-80
2023/10/14 11:36:50;;;;;;;17.48;1.75;;;;;;;15.64;93.06;101069.66;4932424;29;20034;-80
2023/10/14 11:39:18;;;;;;;9.73;1.40;;;;;;;15.64;91.40;101064.13;4916104;29;20048;-81
2023/10/14 11:41:44;;;;;;;13.32;1.73;;;;;;;15.93;92.15;101054.91;4933135;29;20569;-81
2023/10/14 11:44:10;;;;;;;13.07;1.50;;;;;;;15.71;94.11;101058.88;4921389;29;20569;-80
2023/10/14 11:46:38;;;;;;;12.70;1.67;;;;;;;15.92;95.17;101061.47;4883839;29;20044;-80
2023/10/14 11:49:09;;;;;;;16.42;2.30;;;;;;;16.10;92.59;101062.41;4896876;29;20443;-80
2023/10/14 11:51:37;;;;;;;6.95;1.27;;;;;;;15.85;90.65;101061.19;4914388;29;20024;-80
2023/10/14 11:54:03;;;;;;;11.45;1.73;;;;;;;16.01;90.84;101056.94;4894615;29;20043;-80
2023/10/14 11:56:28;;;;;;;7.65;1.10;;;;;;;16.51;92.83;101062.91;4912621;29;20036;-80
2023/10/14 11:58:54;;;;;;;7.07;1.00;;;;;;;16.50;90.83;101060.31;4915082;29;20515;-80
2023/10/14 12:01:23;;;;;;;15.13;2.00;;;;;;;16.76;92.21;101060.41;4912354;29;20040;-80
2023/10/14 12:03:49;;;;;;;8.05;1.50;;;;;;;16.86;90.66;101060.38;4912837;29;20218;-80
2023/10/14 12:06:15;;;;;;;12.43;1.60;;;;;;;16.98;87.92;101061.00;4913041;29;20554;-80
2023/10/14 12:08:42;;;;;;;10.15;1.23;;;;;;;16.96;87.13;101061.16;4915473;29;20039;-79
2023/10/14 12:11:13;;;;;;;8.25;1.27;;;;;;;16.76;80.92;101046.59;4913545;29;20028;-80
2023/10/14 12:13:39;;;;;;;7.47;1.20;;;;;;;17.01;79.76;101057.91;4912946;29;20035;-80
2023/10/14 12:16:05;;;;;;;6.68;1.05;;;;;;;16.86;79.59;101058.47;4889059;29;20384;-80
2023/10/14 12:18:35;;;;;;;9.73;1.42;;;;;;;16.79;75.25;101062.88;4917891;29;20131;-96
2023/10/14 12:21:08;;;;;;;8.77;1.35;;;;;;;16.87;77.45;101065.75;4930936;29;20053;-96
2023/10/14 12:23:38;;;;;;;8.05;1.13;;;;;;;16.95;82.03;101070.47;4908742;29;20064;-96
2023/10/14 12:26:06;;;;;;;12.13;1.27;;;;;;;16.57;86.01;101072.47;4901118;29;20095;-95
2023/10/14 12:28:38;;;;;;;14.00;1.40;;;;;;;16.16;88.84;101080.25;4904306;29;20117;-95
2023/10/14 12:33:41;;;;;;;14.20;1.48;;;;;;;16.48;89.69;101078.94;4971610;23;20155;-92
2023/10/14 12:36:10;;;;;;;12.43;1.55;;;;;;;16.85;93.10;101089.06;4946023;29;20028;-92
2023/10/14 12:38:42;;;;;;;17.77;1.50;;;;;;;16.97;88.32;101084.16;4928063;29;20039;-95
2023/10/14 12:49:02;;;;;;;12.20;1.58;;;;;;;16.67;78.65;101097.28;5173587;23;20072;-96